Terminal Aerodrome Forecast
Issued by NWS Burlington, VT

Home | Current Version | Previous Version | Text Only | Print | Product List | Glossary On
Versions: 1 2 3 4 5 6 7 8 9 10 11 12 13 14 15 16 17 18
432
FTUS41 KBTV 232345 CCA
TAFBTV
TAF COR
KBTV 232345Z 2400/2424 18007KT P6SM OVC045
      TEMPO 2402/2406 6SM SHRA OVC025
     FM240900 24004KT 6SM BR VCSH BKN015
     FM241300 28008KT P6SM SCT035
     FM241500 31013KT P6SM SCT090=

USA.gov is the U.S. government's official web portal to all federal, state and local government web resources and services.